createdAt,value
2023-03-22T00:00:17.658Z,6.09
2023-03-22T00:05:40.871Z,8.15
2023-03-22T00:10:43.776Z,9.01
2023-03-22T00:15:49.331Z,9.50
2023-03-22T00:20:55.835Z,8.27
2023-03-22T00:25:58.837Z,6.84
2023-03-22T00:31:02.965Z,8.02
2023-03-22T00:36:09.684Z,8.88
2023-03-22T00:41:16.289Z,7.72
2023-03-22T00:46:21.086Z,7.18
2023-03-22T00:51:24.640Z,8.72
2023-03-22T00:56:29.169Z,9.69
2023-03-22T01:01:32.817Z,10.01
2023-03-22T01:06:36.206Z,8.39
2023-03-22T01:11:39.210Z,7.03
2023-03-22T01:16:42.195Z,7.47
2023-03-22T01:21:45.327Z,9.05
2023-03-22T01:26:48.889Z,9.73
2023-03-22T01:31:52.103Z,9.77
2023-03-22T01:36:55.056Z,8.25
2023-03-22T01:41:58.066Z,9.20
2023-03-22T01:47:00.970Z,10.35
2023-03-22T01:52:12.274Z,9.87
2023-03-22T01:57:15.176Z,8.25
2023-03-22T02:02:22.449Z,8.13
2023-03-22T02:07:28.562Z,9.97
2023-03-22T02:12:42.626Z,10.94
2023-03-22T02:18:19.127Z,10.81
2023-03-22T02:23:21.933Z,8.85
2023-03-22T02:28:42.745Z,8.83
2023-03-22T02:33:48.935Z,10.45
2023-03-22T02:39:09.858Z,11.17
2023-03-22T02:44:43.379Z,11.12
2023-03-22T02:50:08.918Z,9.16
2023-03-22T02:55:30.246Z,10.19
2023-03-22T03:00:36.614Z,11.42
2023-03-22T03:05:43.736Z,11.11
2023-03-22T03:10:48.378Z,9.22
2023-03-22T03:15:55.460Z,9.01
2023-03-22T03:21:30.432Z,10.52
2023-03-22T03:26:36.719Z,10.70
2023-03-22T03:31:50.895Z,8.97
2023-03-22T03:37:01.520Z,9.70
2023-03-22T03:42:07.144Z,10.42
2023-03-22T03:47:12.334Z,8.70
2023-03-22T03:52:15.307Z,8.44
2023-03-22T03:57:18.209Z,9.85
2023-03-22T04:02:21.193Z,10.66
2023-03-22T04:07:24.434Z,10.48
2023-03-22T04:12:27.338Z,8.71
2023-03-22T04:17:32.215Z,8.45
2023-03-22T04:22:38.580Z,10.13
2023-03-22T04:27:43.571Z,11.01
2023-03-22T04:32:47.562Z,10.52
2023-03-22T04:37:51.786Z,8.82
2023-03-22T04:42:57.936Z,9.34
2023-03-22T04:48:01.209Z,10.82
2023-03-22T04:53:04.182Z,10.99
2023-03-22T04:58:07.086Z,9.42
2023-03-22T05:03:10.131Z,9.37
2023-03-22T05:08:14.562Z,10.95
2023-03-22T05:13:17.447Z,11.76
2023-03-22T05:18:24.927Z,10.97
2023-03-22T05:23:28.262Z,9.41
2023-03-22T05:28:32.185Z,9.77
2023-03-22T05:33:35.195Z,11.22
2023-03-22T05:38:38.730Z,11.44
2023-03-22T05:43:41.928Z,10.16
2023-03-22T05:48:44.838Z,11.15
2023-03-22T05:53:49.087Z,12.09
2023-03-22T05:58:52.280Z,11.48
2023-03-22T06:03:55.188Z,10.04
2023-03-22T06:09:14.157Z,10.92
2023-03-22T06:14:19.429Z,12.30
2023-03-22T06:19:22.357Z,12.19
2023-03-22T06:24:25.869Z,10.53
2023-03-22T06:29:28.865Z,10.57
2023-03-22T06:34:32.217Z,12.24
2023-03-22T06:39:35.075Z,11.93
2023-03-22T06:44:37.991Z,11.03
2023-03-22T06:49:41.501Z,12.27
2023-03-22T06:54:44.766Z,12.20
2023-03-22T06:59:47.809Z,11.13
2023-03-22T07:04:50.797Z,12.47
2023-03-22T07:09:53.821Z,13.21
2023-03-22T07:14:56.942Z,11.53
2023-03-22T07:20:00.070Z,11.62
2023-03-22T07:25:03.284Z,12.82
2023-03-22T07:30:09.048Z,11.69
2023-03-22T07:35:12.651Z,11.14
2023-03-22T07:40:15.717Z,12.65
2023-03-22T07:45:20.769Z,12.72
2023-03-22T07:50:23.719Z,11.40
2023-03-22T07:55:26.624Z,12.48
2023-03-22T08:00:29.903Z,13.23
2023-03-22T08:05:33.238Z,12.09
2023-03-22T08:10:36.256Z,11.19
2023-03-22T08:15:39.717Z,12.49
2023-03-22T08:20:45.501Z,13.31
2023-03-22T08:25:48.556Z,13.71
2023-03-22T08:30:52.288Z,12.25
2023-03-22T08:36:06.748Z,11.51
2023-03-22T08:41:09.755Z,12.42
2023-03-22T08:46:12.802Z,12.92
2023-03-22T08:51:20.788Z,13.03
2023-03-22T08:56:25.121Z,13.06
2023-03-22T09:01:28.208Z,13.29
2023-03-22T09:06:31.548Z,13.44
2023-03-22T09:11:35.676Z,13.03
2023-03-22T09:16:38.639Z,13.13
2023-03-22T09:21:41.586Z,13.13
2023-03-22T09:26:44.905Z,13.25
2023-03-22T09:31:50.879Z,13.12
2023-03-22T09:36:54.326Z,13.20
2023-03-22T09:42:02.222Z,13.45
2023-03-22T09:47:08.293Z,13.65
2023-03-22T09:52:16.798Z,13.55
2023-03-22T09:57:22.343Z,13.75
2023-03-22T10:02:48.883Z,14.11
2023-03-22T10:08:03.946Z,14.04
2023-03-22T10:13:23.541Z,14.41
2023-03-22T10:18:33.313Z,14.14
2023-03-22T10:23:55.772Z,14.31
2023-03-22T10:29:12.517Z,14.42
2023-03-22T10:34:24.627Z,14.10
2023-03-22T10:39:39.404Z,14.62
2023-03-22T10:44:50.493Z,14.48
2023-03-22T10:49:56.012Z,14.95
2023-03-22T10:55:03.767Z,14.91
2023-03-22T11:00:11.602Z,14.76
2023-03-22T11:05:24.753Z,14.98
2023-03-22T11:10:33.374Z,14.77
2023-03-22T11:15:49.196Z,13.40
2023-03-22T11:20:57.520Z,14.04
2023-03-22T11:26:09.535Z,14.26
2023-03-22T11:31:15.511Z,14.39
2023-03-22T11:36:19.396Z,14.28
2023-03-22T11:41:25.782Z,14.01
2023-03-22T11:46:30.302Z,14.10
2023-03-22T11:51:37.369Z,14.27
2023-03-22T11:56:43.748Z,14.54
2023-03-22T12:02:13.622Z,14.94
2023-03-22T12:07:22.167Z,14.95
2023-03-22T12:12:30.012Z,15.28
2023-03-22T12:17:49.762Z,15.05
2023-03-22T12:22:55.322Z,14.97
2023-03-22T12:28:02.222Z,14.86
2023-03-22T12:33:29.310Z,15.14
2023-03-22T12:38:41.515Z,15.34
2023-03-22T12:43:49.945Z,15.50
2023-03-22T12:49:27.980Z,15.59
2023-03-22T12:54:31.242Z,15.58
2023-03-22T12:59:34.290Z,15.76
2023-03-22T13:04:37.201Z,15.78
2023-03-22T13:09:42.808Z,15.39
2023-03-22T13:15:28.399Z,14.45
2023-03-22T13:20:34.991Z,15.19
2023-03-22T13:25:40.513Z,15.55
2023-03-22T13:30:56.646Z,15.77
2023-03-22T13:36:07.280Z,15.75
2023-03-22T13:41:33.286Z,15.78
2023-03-22T13:46:36.339Z,15.88
2023-03-22T13:51:41.090Z,15.91
2023-03-22T13:56:57.160Z,16.02
2023-03-22T14:02:22.472Z,16.25
2023-03-22T14:07:40.732Z,15.94
2023-03-22T14:12:58.097Z,15.31
2023-03-22T14:18:16.288Z,16.61
